sensor_id;sensor_type;location;lat;lon;timestamp;pressure;altitude;pressure_sealevel;temperature;humidity
74913;BME280;63878;55.624;37.304;2023-07-20T00:06:43;97645.41;;;10.10;64.33
74913;BME280;63878;55.624;37.304;2023-07-20T00:16:45;97648.22;;;10.09;64.22
74913;BME280;63878;55.624;37.304;2023-07-20T00:26:46;97652.34;;;10.11;64.42
74913;BME280;63878;55.624;37.304;2023-07-20T00:36:46;97658.13;;;10.07;64.33
74913;BME280;63878;55.624;37.304;2023-07-20T00:46:47;97669.00;;;9.95;64.71
74913;BME280;63878;55.624;37.304;2023-07-20T00:56:48;97675.78;;;9.98;64.21
74913;BME280;63878;55.624;37.304;2023-07-20T01:07:06;97663.06;;;10.02;64.74
74913;BME280;63878;55.624;37.304;2023-07-20T01:17:11;97660.16;;;9.80;65.38
74913;BME280;63878;55.624;37.304;2023-07-20T01:37:41;97672.97;;;9.83;65.54
74913;BME280;63878;55.624;37.304;2023-07-20T01:47:42;97659.34;;;9.71;65.73
74913;BME280;63878;55.624;37.304;2023-07-20T01:57:43;97668.06;;;9.72;65.95
74913;BME280;63878;55.624;37.304;2023-07-20T02:07:43;97670.31;;;10.08;65.11
74913;BME280;63878;55.624;37.304;2023-07-20T02:17:44;97666.88;;;10.54;63.23
74913;BME280;63878;55.624;37.304;2023-07-20T02:27:44;97668.16;;;10.98;61.65
74913;BME280;63878;55.624;37.304;2023-07-20T02:37:45;97667.41;;;11.58;61.12
74913;BME280;63878;55.624;37.304;2023-07-20T02:47:45;97669.97;;;11.89;59.67
74913;BME280;63878;55.624;37.304;2023-07-20T02:57:46;97678.44;;;11.84;59.17
74913;BME280;63878;55.624;37.304;2023-07-20T03:07:46;97696.28;;;12.50;57.36
74913;BME280;63878;55.624;37.304;2023-07-20T03:17:46;97695.91;;;12.82;56.74
74913;BME280;63878;55.624;37.304;2023-07-20T03:27:47;97698.53;;;12.97;56.31
74913;BME280;63878;55.624;37.304;2023-07-20T03:37:47;97708.06;;;13.28;54.88
74913;BME280;63878;55.624;37.304;2023-07-20T03:47:48;97688.00;;;13.61;54.13
74913;BME280;63878;55.624;37.304;2023-07-20T03:57:48;97728.28;;;13.14;55.87
74913;BME280;63878;55.624;37.304;2023-07-20T04:07:49;97720.25;;;13.43;54.58
74913;BME280;63878;55.624;37.304;2023-07-20T04:17:49;97722.91;;;13.07;55.87
74913;BME280;63878;55.624;37.304;2023-07-20T04:27:50;97730.22;;;13.41;54.45
74913;BME280;63878;55.624;37.304;2023-07-20T04:37:50;97725.34;;;14.37;52.07
74913;BME280;63878;55.624;37.304;2023-07-20T04:47:50;97731.72;;;14.77;50.31
74913;BME280;63878;55.624;37.304;2023-07-20T04:57:51;97725.94;;;15.08;49.79
74913;BME280;63878;55.624;37.304;2023-07-20T05:07:51;97737.16;;;15.72;47.54
74913;BME280;63878;55.624;37.304;2023-07-20T05:17:52;97731.03;;;15.91;45.72
74913;BME280;63878;55.624;37.304;2023-07-20T05:27:53;97740.88;;;16.10;44.77
74913;BME280;63878;55.624;37.304;2023-07-20T05:37:53;97729.78;;;17.24;42.25
74913;BME280;63878;55.624;37.304;2023-07-20T05:47:54;97738.91;;;16.90;41.87
74913;BME280;63878;55.624;37.304;2023-07-20T05:57:54;97751.03;;;17.44;41.26
74913;BME280;63878;55.624;37.304;2023-07-20T06:07:55;97740.81;;;17.66;41.48
74913;BME280;63878;55.624;37.304;2023-07-20T06:17:55;97737.28;;;17.47;41.25
74913;BME280;63878;55.624;37.304;2023-07-20T06:27:56;97733.72;;;17.53;41.54
74913;BME280;63878;55.624;37.304;2023-07-20T06:37:57;97758.66;;;17.72;40.34
74913;BME280;63878;55.624;37.304;2023-07-20T06:47:58;97720.41;;;17.47;39.54
74913;BME280;63878;55.624;37.304;2023-07-20T06:57:58;97743.78;;;17.90;40.13
74913;BME280;63878;55.624;37.304;2023-07-20T07:07:59;97755.41;;;18.02;38.75
74913;BME280;63878;55.624;37.304;2023-07-20T07:17:59;97755.97;;;20.99;40.65
74913;BME280;63878;55.624;37.304;2023-07-20T07:28:00;97765.66;;;21.52;36.55
74913;BME280;63878;55.624;37.304;2023-07-20T07:38:00;97768.38;;;20.77;34.71
74913;BME280;63878;55.624;37.304;2023-07-20T07:48:01;97768.34;;;20.18;36.17
74913;BME280;63878;55.624;37.304;2023-07-20T07:58:02;97773.50;;;19.60;38.12
74913;BME280;63878;55.624;37.304;2023-07-20T08:08:03;97768.38;;;20.00;37.14
74913;BME280;63878;55.624;37.304;2023-07-20T08:18:04;97764.16;;;19.51;39.03
74913;BME280;63878;55.624;37.304;2023-07-20T08:28:05;97776.31;;;19.35;37.20
74913;BME280;63878;55.624;37.304;2023-07-20T08:38:06;97782.63;;;19.40;38.73
74913;BME280;63878;55.624;37.304;2023-07-20T08:48:07;97773.22;;;19.68;37.25
74913;BME280;63878;55.624;37.304;2023-07-20T08:58:08;97770.59;;;18.95;38.42
74913;BME280;63878;55.624;37.304;2023-07-20T09:08:12;97772.66;;;19.29;38.20
74913;BME280;63878;55.624;37.304;2023-07-20T09:18:23;97775.13;;;19.61;39.47
74913;BME280;63878;55.624;37.304;2023-07-20T09:28:24;97779.09;;;19.88;38.37
74913;BME280;63878;55.624;37.304;2023-07-20T09:38:26;97757.59;;;18.36;39.95
74913;BME280;63878;55.624;37.304;2023-07-20T09:48:26;97779.00;;;17.67;40.00
74913;BME280;63878;55.624;37.304;2023-07-20T09:58:27;97776.94;;;17.30;40.95
74913;BME280;63878;55.624;37.304;2023-07-20T10:08:29;97767.25;;;17.43;40.02
74913;BME280;63878;55.624;37.304;2023-07-20T10:18:40;97769.28;;;17.47;41.29
74913;BME280;63878;55.624;37.304;2023-07-20T10:28:41;97777.78;;;17.24;40.30
74913;BME280;63878;55.624;37.304;2023-07-20T10:38:53;97778.88;;;17.55;41.24
74913;BME280;63878;55.624;37.304;2023-07-20T10:49:07;97764.19;;;16.81;41.76
74913;BME280;63878;55.624;37.304;2023-07-20T11:09:22;97801.63;;;17.13;43.51
74913;BME280;63878;55.624;37.304;2023-07-20T11:19:24;97800.06;;;17.43;44.37
74913;BME280;63878;55.624;37.304;2023-07-20T11:29:25;97802.28;;;17.53;41.54
74913;BME280;63878;55.624;37.304;2023-07-20T11:39:26;97807.09;;;17.31;43.38
74913;BME280;63878;55.624;37.304;2023-07-20T11:49:27;97806.88;;;17.33;41.75
74913;BME280;63878;55.624;37.304;2023-07-20T11:59:27;97820.63;;;17.36;43.13
74913;BME280;63878;55.624;37.304;2023-07-20T12:09:28;97854.19;;;16.53;50.43
74913;BME280;63878;55.624;37.304;2023-07-20T12:19:28;97851.50;;;15.52;53.34
74913;BME280;63878;55.624;37.304;2023-07-20T12:29:29;97836.03;;;15.75;52.72
74913;BME280;63878;55.624;37.304;2023-07-20T12:39:29;97831.75;;;15.81;52.18
74913;BME280;63878;55.624;37.304;2023-07-20T12:49:30;97825.44;;;15.95;54.16
74913;BME280;63878;55.624;37.304;2023-07-20T12:59:30;97812.53;;;15.99;54.77
74913;BME280;63878;55.624;37.304;2023-07-20T13:09:31;97815.44;;;16.17;54.53
74913;BME280;63878;55.624;37.304;2023-07-20T13:19:31;97808.69;;;16.14;54.71
74913;BME280;63878;55.624;37.304;2023-07-20T13:29:33;97807.22;;;16.25;53.04
74913;BME280;63878;55.624;37.304;2023-07-20T13:39:34;97804.38;;;16.27;53.87
74913;BME280;63878;55.624;37.304;2023-07-20T13:49:35;97810.56;;;16.47;51.38
74913;BME280;63878;55.624;37.304;2023-07-20T13:59:35;97810.94;;;16.57;49.16
74913;BME280;63878;55.624;37.304;2023-07-20T14:09:36;97805.81;;;16.69;48.96
74913;BME280;63878;55.624;37.304;2023-07-20T14:19:37;97799.66;;;16.82;45.46
74913;BME280;63878;55.624;37.304;2023-07-20T14:29:38;97797.81;;;16.62;44.98
74913;BME280;63878;55.624;37.304;2023-07-20T14:39:38;97810.91;;;16.17;46.01
74913;BME280;63878;55.624;37.304;2023-07-20T14:49:39;97816.47;;;16.16;45.24
74913;BME280;63878;55.624;37.304;2023-07-20T14:59:40;97820.97;;;16.15;46.65
74913;BME280;63878;55.624;37.304;2023-07-20T15:09:41;97811.94;;;16.03;43.30
74913;BME280;63878;55.624;37.304;2023-07-20T15:19:41;97811.34;;;16.08;41.70
74913;BME280;63878;55.624;37.304;2023-07-20T15:29:42;97830.16;;;16.26;41.60
74913;BME280;63878;55.624;37.304;2023-07-20T15:39:43;97817.72;;;16.33;40.11
74913;BME280;63878;55.624;37.304;2023-07-20T15:49:44;97815.25;;;16.38;40.90
74913;BME280;63878;55.624;37.304;2023-07-20T15:59:45;97820.16;;;16.21;42.10
74913;BME280;63878;55.624;37.304;2023-07-20T16:09:45;97829.56;;;16.84;46.17
74913;BME280;63878;55.624;37.304;2023-07-20T16:19:46;97840.66;;;16.87;44.71
74913;BME280;63878;55.624;37.304;2023-07-20T16:29:47;97833.44;;;17.01;41.73
74913;BME280;63878;55.624;37.304;2023-07-20T16:39:51;97837.75;;;17.02;42.58
74913;BME280;63878;55.624;37.304;2023-07-20T16:49:52;97861.75;;;16.95;42.50
74913;BME280;63878;55.624;37.304;2023-07-20T16:59:52;97875.91;;;16.30;41.18
74913;BME280;63878;55.624;37.304;2023-07-20T17:09:53;97891.81;;;16.16;42.05
74913;BME280;63878;55.624;37.304;2023-07-20T17:19:54;97896.69;;;16.00;43.83
74913;BME280;63878;55.624;37.304;2023-07-20T17:29:54;97881.13;;;15.97;42.60
74913;BME280;63878;55.624;37.304;2023-07-20T17:39:55;97888.28;;;15.89;42.72
74913;BME280;63878;55.624;37.304;2023-07-20T17:49:55;97900.94;;;15.81;43.50
74913;BME280;63878;55.624;37.304;2023-07-20T17:59:56;97909.72;;;15.75;45.06
74913;BME280;63878;55.624;37.304;2023-07-20T18:09:57;97917.50;;;15.76;44.31
74913;BME280;63878;55.624;37.304;2023-07-20T18:19:57;97891.22;;;15.53;45.88
74913;BME280;63878;55.624;37.304;2023-07-20T18:29:58;97897.78;;;15.23;46.34
74913;BME280;63878;55.624;37.304;2023-07-20T18:39:59;97896.25;;;15.07;44.21
74913;BME280;63878;55.624;37.304;2023-07-20T18:50:00;97894.63;;;15.12;44.52
74913;BME280;63878;55.624;37.304;2023-07-20T19:00:01;97902.75;;;15.04;47.34
74913;BME280;63878;55.624;37.304;2023-07-20T19:10:02;97907.34;;;14.89;46.58
74913;BME280;63878;55.624;37.304;2023-07-20T19:20:03;97906.78;;;16.24;47.86
74913;BME280;63878;55.624;37.304;2023-07-20T19:30:04;97898.03;;;16.30;43.49
74913;BME280;63878;55.624;37.304;2023-07-20T19:40:05;97909.44;;;14.94;47.84
74913;BME280;63878;55.624;37.304;2023-07-20T19:50:07;97902.84;;;14.40;49.69
74913;BME280;63878;55.624;37.304;2023-07-20T20:00:07;97910.34;;;14.15;50.71
74913;BME280;63878;55.624;37.304;2023-07-20T20:10:08;97920.44;;;14.05;50.64
74913;BME280;63878;55.624;37.304;2023-07-20T20:20:09;97930.34;;;13.96;50.88
74913;BME280;63878;55.624;37.304;2023-07-20T20:30:10;97931.06;;;13.39;52.70
74913;BME280;63878;55.624;37.304;2023-07-20T20:40:11;97935.97;;;13.13;53.52
74913;BME280;63878;55.624;37.304;2023-07-20T20:50:11;97936.13;;;12.96;54.03
74913;BME280;63878;55.624;37.304;2023-07-20T21:00:12;97930.28;;;12.86;53.68
74913;BME280;63878;55.624;37.304;2023-07-20T21:10:14;97938.75;;;12.82;53.58
74913;BME280;63878;55.624;37.304;2023-07-20T21:20:14;97924.25;;;12.69;52.93
74913;BME280;63878;55.624;37.304;2023-07-20T21:30:15;97945.44;;;12.69;53.09
74913;BME280;63878;55.624;37.304;2023-07-20T21:40:15;97958.13;;;12.51;53.77
74913;BME280;63878;55.624;37.304;2023-07-20T21:50:16;97958.56;;;12.40;54.34
74913;BME280;63878;55.624;37.304;2023-07-20T22:00:16;97961.44;;;12.30;55.19
74913;BME280;63878;55.624;37.304;2023-07-20T22:10:17;97944.66;;;12.15;54.80
74913;BME280;63878;55.624;37.304;2023-07-20T22:20:18;97952.47;;;12.08;55.16
74913;BME280;63878;55.624;37.304;2023-07-20T22:30:18;97955.63;;;12.12;55.37
74913;BME280;63878;55.624;37.304;2023-07-20T22:40:19;97945.84;;;12.12;55.33
74913;BME280;63878;55.624;37.304;2023-07-20T22:50:20;97954.69;;;12.28;54.56
74913;BME280;63878;55.624;37.304;2023-07-20T23:00:20;97934.91;;;12.15;54.84
74913;BME280;63878;55.624;37.304;2023-07-20T23:10:21;97940.47;;;11.98;55.66
74913;BME280;63878;55.624;37.304;2023-07-20T23:20:22;97952.78;;;11.82;57.00
74913;BME280;63878;55.624;37.304;2023-07-20T23:30:23;97944.97;;;11.89;56.52
74913;BME280;63878;55.624;37.304;2023-07-20T23:40:24;97936.16;;;11.97;56.07
74913;BME280;63878;55.624;37.304;2023-07-20T23:50:24;97930.28;;;11.86;56.51
